sensor_id;sensor_type;location;lat;lon;timestamp;P1;P2;P0
74078;PMS5003;62437;51.544;-3.276;2022-10-03T00:01:39;6;6;
74078;PMS5003;62437;51.544;-3.276;2022-10-03T00:03:57;6;6;
74078;PMS5003;62437;51.544;-3.276;2022-10-03T00:06:24;7;6;
74078;PMS5003;62437;51.544;-3.276;2022-10-03T00:08:51;9;9;
74078;PMS5003;62437;51.544;-3.276;2022-10-03T00:11:16;7;7;
74078;PMS5003;62437;51.544;-3.276;2022-10-03T00:13:39;7;6;
74078;PMS5003;62437;51.544;-3.276;2022-10-03T00:16:06;10;7;
74078;PMS5003;62437;51.544;-3.276;2022-10-03T00:18:32;6;6;
74078;PMS5003;62437;51.544;-3.276;2022-10-03T00:23:22;4;4;
74078;PMS5003;62437;51.544;-3.276;2022-10-03T00:25:48;6;5;
74078;PMS5003;62437;51.544;-3.276;2022-10-03T00:28:15;5;4;
74078;PMS5003;62437;51.544;-3.276;2022-10-03T00:30:42;6;6;
74078;PMS5003;62437;51.544;-3.276;2022-10-03T00:33:08;4;4;
74078;PMS5003;62437;51.544;-3.276;2022-10-03T00:35:38;6;5;
74078;PMS5003;62437;51.544;-3.276;2022-10-03T00:37:59;5;4;
74078;PMS5003;62437;51.544;-3.276;2022-10-03T00:43:00;6;6;
74078;PMS5003;62437;51.544;-3.276;2022-10-03T00:45:20;7;7;
74078;PMS5003;62437;51.544;-3.276;2022-10-03T00:47:43;5;5;
74078;PMS5003;62437;51.544;-3.276;2022-10-03T00:50:13;5;5;
74078;PMS5003;62437;51.544;-3.276;2022-10-03T00:52:35;5;5;
74078;PMS5003;62437;51.544;-3.276;2022-10-03T00:55:00;6;5;
74078;PMS5003;62437;51.544;-3.276;2022-10-03T00:57:26;5;5;
74078;PMS5003;62437;51.544;-3.276;2022-10-03T01:00:00;6;5;
74078;PMS5003;62437;51.544;-3.276;2022-10-03T01:02:18;7;6;
74078;PMS5003;62437;51.544;-3.276;2022-10-03T01:04:41;7;6;
74078;PMS5003;62437;51.544;-3.276;2022-10-03T01:07:05;6;5;
74078;PMS5003;62437;51.544;-3.276;2022-10-03T01:09:32;9;7;
74078;PMS5003;62437;51.544;-3.276;2022-10-03T01:11:57;5;5;
74078;PMS5003;62437;51.544;-3.276;2022-10-03T01:14:23;5;5;
74078;PMS5003;62437;51.544;-3.276;2022-10-03T01:16:51;5;5;
74078;PMS5003;62437;51.544;-3.276;2022-10-03T01:21:40;7;7;
74078;PMS5003;62437;51.544;-3.276;2022-10-03T01:26:36;6;5;
74078;PMS5003;62437;51.544;-3.276;2022-10-03T01:28:56;7;6;
74078;PMS5003;62437;51.544;-3.276;2022-10-03T01:31:22;5;5;
74078;PMS5003;62437;51.544;-3.276;2022-10-03T01:33:47;8;6;
74078;PMS5003;62437;51.544;-3.276;2022-10-03T01:36:13;7;6;
74078;PMS5003;62437;51.544;-3.276;2022-10-03T01:38:40;6;5;
74078;PMS5003;62437;51.544;-3.276;2022-10-03T01:41:04;6;6;
74078;PMS5003;62437;51.544;-3.276;2022-10-03T01:43:32;5;5;
74078;PMS5003;62437;51.544;-3.276;2022-10-03T01:45:59;6;6;
74078;PMS5003;62437;51.544;-3.276;2022-10-03T01:48:21;7;6;
74078;PMS5003;62437;51.544;-3.276;2022-10-03T01:50:47;6;6;
74078;PMS5003;62437;51.544;-3.276;2022-10-03T01:53:13;4;4;
74078;PMS5003;62437;51.544;-3.276;2022-10-03T01:55:40;5;5;
74078;PMS5003;62437;51.544;-3.276;2022-10-03T01:58:05;6;6;
74078;PMS5003;62437;51.544;-3.276;2022-10-03T02:00:30;7;6;
74078;PMS5003;62437;51.544;-3.276;2022-10-03T02:02:58;8;7;
74078;PMS5003;62437;51.544;-3.276;2022-10-03T02:05:23;7;6;
74078;PMS5003;62437;51.544;-3.276;2022-10-03T02:07:48;4;4;
74078;PMS5003;62437;51.544;-3.276;2022-10-03T02:10:17;5;5;
74078;PMS5003;62437;51.544;-3.276;2022-10-03T02:12:38;4;4;
74078;PMS5003;62437;51.544;-3.276;2022-10-03T02:15:08;6;5;
74078;PMS5003;62437;51.544;-3.276;2022-10-03T02:17:33;6;5;
74078;PMS5003;62437;51.544;-3.276;2022-10-03T02:19:57;6;6;
74078;PMS5003;62437;51.544;-3.276;2022-10-03T02:24:48;5;4;
74078;PMS5003;62437;51.544;-3.276;2022-10-03T02:27:17;7;7;
74078;PMS5003;62437;51.544;-3.276;2022-10-03T02:29:48;5;5;
74078;PMS5003;62437;51.544;-3.276;2022-10-03T02:32:09;6;5;
74078;PMS5003;62437;51.544;-3.276;2022-10-03T02:34:31;5;5;
74078;PMS5003;62437;51.544;-3.276;2022-10-03T02:37:07;7;6;
74078;PMS5003;62437;51.544;-3.276;2022-10-03T02:44:16;5;5;
74078;PMS5003;62437;51.544;-3.276;2022-10-03T02:51:41;3;3;
74078;PMS5003;62437;51.544;-3.276;2022-10-03T03:01:25;6;5;
74078;PMS5003;62437;51.544;-3.276;2022-10-03T03:03:42;7;6;
74078;PMS5003;62437;51.544;-3.276;2022-10-03T03:08:35;5;5;
74078;PMS5003;62437;51.544;-3.276;2022-10-03T03:11:02;4;4;
74078;PMS5003;62437;51.544;-3.276;2022-10-03T03:13:25;5;5;
74078;PMS5003;62437;51.544;-3.276;2022-10-03T03:18:14;8;6;
74078;PMS5003;62437;51.544;-3.276;2022-10-03T03:20:40;8;6;
74078;PMS5003;62437;51.544;-3.276;2022-10-03T03:23:08;5;5;
74078;PMS5003;62437;51.544;-3.276;2022-10-03T03:25:34;6;6;
74078;PMS5003;62437;51.544;-3.276;2022-10-03T03:27:57;6;5;
74078;PMS5003;62437;51.544;-3.276;2022-10-03T03:30:21;4;4;
74078;PMS5003;62437;51.544;-3.276;2022-10-03T03:32:50;6;6;
74078;PMS5003;62437;51.544;-3.276;2022-10-03T03:35:14;4;4;
74078;PMS5003;62437;51.544;-3.276;2022-10-03T03:37:38;5;5;
74078;PMS5003;62437;51.544;-3.276;2022-10-03T03:40:08;4;4;
74078;PMS5003;62437;51.544;-3.276;2022-10-03T03:42:33;6;5;
74078;PMS5003;62437;51.544;-3.276;2022-10-03T03:44:59;6;5;
74078;PMS5003;62437;51.544;-3.276;2022-10-03T03:47:25;5;5;
74078;PMS5003;62437;51.544;-3.276;2022-10-03T03:49:52;5;4;
74078;PMS5003;62437;51.544;-3.276;2022-10-03T03:52:17;6;4;
74078;PMS5003;62437;51.544;-3.276;2022-10-03T03:54:44;6;6;
74078;PMS5003;62437;51.544;-3.276;2022-10-03T03:57:07;4;4;
74078;PMS5003;62437;51.544;-3.276;2022-10-03T03:59:34;8;7;
74078;PMS5003;62437;51.544;-3.276;2022-10-03T04:02:04;8;6;
74078;PMS5003;62437;51.544;-3.276;2022-10-03T04:04:26;7;6;
74078;PMS5003;62437;51.544;-3.276;2022-10-03T04:06:50;4;4;
74078;PMS5003;62437;51.544;-3.276;2022-10-03T04:11:43;5;5;
74078;PMS5003;62437;51.544;-3.276;2022-10-03T04:14:10;6;6;
74078;PMS5003;62437;51.544;-3.276;2022-10-03T04:16:31;9;9;
74078;PMS5003;62437;51.544;-3.276;2022-10-03T04:18:57;5;5;
74078;PMS5003;62437;51.544;-3.276;2022-10-03T04:23:51;5;5;
74078;PMS5003;62437;51.544;-3.276;2022-10-03T04:26:17;6;5;
74078;PMS5003;62437;51.544;-3.276;2022-10-03T04:28:43;6;5;
74078;PMS5003;62437;51.544;-3.276;2022-10-03T04:31:07;4;4;
74078;PMS5003;62437;51.544;-3.276;2022-10-03T04:33:32;4;4;
74078;PMS5003;62437;51.544;-3.276;2022-10-03T04:36:08;5;5;
74078;PMS5003;62437;51.544;-3.276;2022-10-03T04:38:24;5;5;
74078;PMS5003;62437;51.544;-3.276;2022-10-03T04:40:49;6;5;
74078;PMS5003;62437;51.544;-3.276;2022-10-03T04:43:14;4;4;
74078;PMS5003;62437;51.544;-3.276;2022-10-03T04:45:42;5;5;
74078;PMS5003;62437;51.544;-3.276;2022-10-03T04:48:06;5;5;
74078;PMS5003;62437;51.544;-3.276;2022-10-03T04:50:31;4;4;
74078;PMS5003;62437;51.544;-3.276;2022-10-03T04:52:56;4;4;
74078;PMS5003;62437;51.544;-3.276;2022-10-03T04:55:22;4;4;
74078;PMS5003;62437;51.544;-3.276;2022-10-03T04:57:49;5;4;
74078;PMS5003;62437;51.544;-3.276;2022-10-03T05:00:20;4;4;
74078;PMS5003;62437;51.544;-3.276;2022-10-03T05:02:44;3;3;
74078;PMS5003;62437;51.544;-3.276;2022-10-03T05:05:13;5;4;
74078;PMS5003;62437;51.544;-3.276;2022-10-03T05:07:31;4;4;
74078;PMS5003;62437;51.544;-3.276;2022-10-03T05:09:57;4;4;
74078;PMS5003;62437;51.544;-3.276;2022-10-03T05:12:24;4;4;
74078;PMS5003;62437;51.544;-3.276;2022-10-03T05:14:50;6;6;
74078;PMS5003;62437;51.544;-3.276;2022-10-03T05:17:13;4;4;
74078;PMS5003;62437;51.544;-3.276;2022-10-03T05:19:43;4;4;
74078;PMS5003;62437;51.544;-3.276;2022-10-03T05:22:07;6;6;
74078;PMS5003;62437;51.544;-3.276;2022-10-03T05:24:32;5;5;
74078;PMS5003;62437;51.544;-3.276;2022-10-03T05:26:58;6;6;
74078;PMS5003;62437;51.544;-3.276;2022-10-03T05:29:23;8;7;
74078;PMS5003;62437;51.544;-3.276;2022-10-03T05:31:48;6;6;
74078;PMS5003;62437;51.544;-3.276;2022-10-03T05:34:16;4;4;
74078;PMS5003;62437;51.544;-3.276;2022-10-03T05:36:45;5;5;
74078;PMS5003;62437;51.544;-3.276;2022-10-03T05:41:30;5;5;
74078;PMS5003;62437;51.544;-3.276;2022-10-03T05:44:00;6;5;
74078;PMS5003;62437;51.544;-3.276;2022-10-03T05:46:27;5;5;
74078;PMS5003;62437;51.544;-3.276;2022-10-03T05:48:48;8;6;
74078;PMS5003;62437;51.544;-3.276;2022-10-03T05:51:20;5;4;
74078;PMS5003;62437;51.544;-3.276;2022-10-03T05:53:45;6;5;
74078;PMS5003;62437;51.544;-3.276;2022-10-03T05:56:06;4;4;
74078;PMS5003;62437;51.544;-3.276;2022-10-03T05:58:31;7;6;
74078;PMS5003;62437;51.544;-3.276;2022-10-03T06:08:20;9;4;
74078;PMS5003;62437;51.544;-3.276;2022-10-03T06:10:41;4;4;
74078;PMS5003;62437;51.544;-3.276;2022-10-03T06:13:08;9;8;
74078;PMS5003;62437;51.544;-3.276;2022-10-03T06:17:56;5;5;
74078;PMS5003;62437;51.544;-3.276;2022-10-03T06:25:18;4;4;
74078;PMS5003;62437;51.544;-3.276;2022-10-03T06:30:09;4;4;
74078;PMS5003;62437;51.544;-3.276;2022-10-03T06:37:27;8;6;
74078;PMS5003;62437;51.544;-3.276;2022-10-03T06:39:58;6;4;
74078;PMS5003;62437;51.544;-3.276;2022-10-03T06:44:44;6;5;
74078;PMS5003;62437;51.544;-3.276;2022-10-03T06:47:09;10;10;
74078;PMS5003;62437;51.544;-3.276;2022-10-03T06:49:34;13;12;
74078;PMS5003;62437;51.544;-3.276;2022-10-03T06:51:59;14;14;
74078;PMS5003;62437;51.544;-3.276;2022-10-03T06:54:30;15;15;
74078;PMS5003;62437;51.544;-3.276;2022-10-03T06:56:51;10;9;
74078;PMS5003;62437;51.544;-3.276;2022-10-03T06:59:18;7;6;
74078;PMS5003;62437;51.544;-3.276;2022-10-03T07:01:46;6;6;
74078;PMS5003;62437;51.544;-3.276;2022-10-03T07:06:39;8;6;
74078;PMS5003;62437;51.544;-3.276;2022-10-03T07:11:25;6;6;
74078;PMS5003;62437;51.544;-3.276;2022-10-03T07:23:38;7;7;
74078;PMS5003;62437;51.544;-3.276;2022-10-03T07:30:49;8;7;
74078;PMS5003;62437;51.544;-3.276;2022-10-03T07:40:33;7;6;
74078;PMS5003;62437;51.544;-3.276;2022-10-03T07:45:23;8;5;
74078;PMS5003;62437;51.544;-3.276;2022-10-03T07:50:17;6;6;
74078;PMS5003;62437;51.544;-3.276;2022-10-03T07:52:43;7;7;
74078;PMS5003;62437;51.544;-3.276;2022-10-03T07:57:34;6;6;
74078;PMS5003;62437;51.544;-3.276;2022-10-03T08:00:02;8;8;
74078;PMS5003;62437;51.544;-3.276;2022-10-03T08:02:31;6;6;
74078;PMS5003;62437;51.544;-3.276;2022-10-03T08:04:55;10;9;
74078;PMS5003;62437;51.544;-3.276;2022-10-03T08:09:40;8;8;
74078;PMS5003;62437;51.544;-3.276;2022-10-03T08:12:07;8;8;
74078;PMS5003;62437;51.544;-3.276;2022-10-03T08:14:31;7;7;
74078;PMS5003;62437;51.544;-3.276;2022-10-03T08:17:03;7;7;
74078;PMS5003;62437;51.544;-3.276;2022-10-03T08:19:23;11;10;
74078;PMS5003;62437;51.544;-3.276;2022-10-03T08:24:15;8;8;
74078;PMS5003;62437;51.544;-3.276;2022-10-03T08:26:42;7;7;
74078;PMS5003;62437;51.544;-3.276;2022-10-03T08:29:07;8;7;
74078;PMS5003;62437;51.544;-3.276;2022-10-03T08:31:40;9;9;
74078;PMS5003;62437;51.544;-3.276;2022-10-03T08:33:57;7;7;
74078;PMS5003;62437;51.544;-3.276;2022-10-03T08:38:47;9;9;
74078;PMS5003;62437;51.544;-3.276;2022-10-03T08:43:41;7;7;
74078;PMS5003;62437;51.544;-3.276;2022-10-03T08:46:04;7;7;
74078;PMS5003;62437;51.544;-3.276;2022-10-03T08:50:56;8;8;
74078;PMS5003;62437;51.544;-3.276;2022-10-03T08:55:44;9;8;
74078;PMS5003;62437;51.544;-3.276;2022-10-03T09:00:39;9;8;
74078;PMS5003;62437;51.544;-3.276;2022-10-03T09:03:14;7;7;
74078;PMS5003;62437;51.544;-3.276;2022-10-03T09:05:31;9;8;
74078;PMS5003;62437;51.544;-3.276;2022-10-03T09:10:24;8;7;
74078;PMS5003;62437;51.544;-3.276;2022-10-03T09:12:50;6;5;
74078;PMS5003;62437;51.544;-3.276;2022-10-03T09:15:12;8;7;
74078;PMS5003;62437;51.544;-3.276;2022-10-03T09:25:00;10;9;
74078;PMS5003;62437;51.544;-3.276;2022-10-03T09:27:21;9;8;
74078;PMS5003;62437;51.544;-3.276;2022-10-03T09:34:39;6;5;
74078;PMS5003;62437;51.544;-3.276;2022-10-03T09:44:19;8;8;
74078;PMS5003;62437;51.544;-3.276;2022-10-03T09:46:52;7;5;
74078;PMS5003;62437;51.544;-3.276;2022-10-03T09:51:33;5;4;
74078;PMS5003;62437;51.544;-3.276;2022-10-03T09:54:11;9;9;
74078;PMS5003;62437;51.544;-3.276;2022-10-03T10:01:18;9;6;
74078;PMS5003;62437;51.544;-3.276;2022-10-03T10:08:35;7;6;
74078;PMS5003;62437;51.544;-3.276;2022-10-03T10:11:08;7;7;
74078;PMS5003;62437;51.544;-3.276;2022-10-03T10:13:34;8;8;
74078;PMS5003;62437;51.544;-3.276;2022-10-03T10:25:32;9;9;
74078;PMS5003;62437;51.544;-3.276;2022-10-03T10:28:02;7;6;
74078;PMS5003;62437;51.544;-3.276;2022-10-03T10:30:22;9;7;
74078;PMS5003;62437;51.544;-3.276;2022-10-03T10:40:09;6;6;
74078;PMS5003;62437;51.544;-3.276;2022-10-03T10:54:42;10;8;
74078;PMS5003;62437;51.544;-3.276;2022-10-03T10:57:05;9;8;
74078;PMS5003;62437;51.544;-3.276;2022-10-03T11:35:56;7;7;
74078;PMS5003;62437;51.544;-3.276;2022-10-03T11:38:16;14;13;
74078;PMS5003;62437;51.544;-3.276;2022-10-03T11:40:45;6;5;
74078;PMS5003;62437;51.544;-3.276;2022-10-03T11:45:33;7;7;
74078;PMS5003;62437;51.544;-3.276;2022-10-03T11:48:03;8;8;
74078;PMS5003;62437;51.544;-3.276;2022-10-03T11:50:33;13;12;
74078;PMS5003;62437;51.544;-3.276;2022-10-03T11:52:54;8;7;
74078;PMS5003;62437;51.544;-3.276;2022-10-03T11:55:19;6;6;
74078;PMS5003;62437;51.544;-3.276;2022-10-03T11:57:40;8;8;
74078;PMS5003;62437;51.544;-3.276;2022-10-03T12:00:08;10;8;
74078;PMS5003;62437;51.544;-3.276;2022-10-03T12:02:41;10;9;
74078;PMS5003;62437;51.544;-3.276;2022-10-03T12:04:57;6;6;
74078;PMS5003;62437;51.544;-3.276;2022-10-03T12:09:59;4;4;
74078;PMS5003;62437;51.544;-3.276;2022-10-03T12:12:14;6;5;
74078;PMS5003;62437;51.544;-3.276;2022-10-03T12:14:40;5;5;
74078;PMS5003;62437;51.544;-3.276;2022-10-03T12:17:06;7;5;
74078;PMS5003;62437;51.544;-3.276;2022-10-03T12:19:31;3;3;
74078;PMS5003;62437;51.544;-3.276;2022-10-03T12:21:56;5;5;
74078;PMS5003;62437;51.544;-3.276;2022-10-03T12:24:23;5;5;
74078;PMS5003;62437;51.544;-3.276;2022-10-03T12:26:48;6;5;
74078;PMS5003;62437;51.544;-3.276;2022-10-03T12:29:12;6;6;
74078;PMS5003;62437;51.544;-3.276;2022-10-03T12:31:39;7;5;
74078;PMS5003;62437;51.544;-3.276;2022-10-03T12:34:08;12;12;
74078;PMS5003;62437;51.544;-3.276;2022-10-03T12:36:29;5;5;
74078;PMS5003;62437;51.544;-3.276;2022-10-03T12:38:56;8;7;
74078;PMS5003;62437;51.544;-3.276;2022-10-03T12:41:37;5;5;
74078;PMS5003;62437;51.544;-3.276;2022-10-03T12:43:50;4;4;
74078;PMS5003;62437;51.544;-3.276;2022-10-03T12:46:12;4;4;
74078;PMS5003;62437;51.544;-3.276;2022-10-03T12:48:38;5;5;
74078;PMS5003;62437;51.544;-3.276;2022-10-03T12:51:05;6;4;
74078;PMS5003;62437;51.544;-3.276;2022-10-03T12:53:31;4;4;
74078;PMS5003;62437;51.544;-3.276;2022-10-03T12:55:57;6;6;
74078;PMS5003;62437;51.544;-3.276;2022-10-03T12:58:21;9;6;
74078;PMS5003;62437;51.544;-3.276;2022-10-03T13:00:47;5;5;
74078;PMS5003;62437;51.544;-3.276;2022-10-03T13:03:18;7;7;
74078;PMS5003;62437;51.544;-3.276;2022-10-03T13:05:40;3;3;
74078;PMS5003;62437;51.544;-3.276;2022-10-03T13:08:02;6;5;
74078;PMS5003;62437;51.544;-3.276;2022-10-03T13:10:29;5;5;
74078;PMS5003;62437;51.544;-3.276;2022-10-03T13:12:53;6;6;
74078;PMS5003;62437;51.544;-3.276;2022-10-03T13:17:45;5;5;
74078;PMS5003;62437;51.544;-3.276;2022-10-03T13:20:11;6;5;
74078;PMS5003;62437;51.544;-3.276;2022-10-03T13:22:37;3;3;
74078;PMS5003;62437;51.544;-3.276;2022-10-03T13:25:02;8;7;
74078;PMS5003;62437;51.544;-3.276;2022-10-03T13:27:30;7;5;
74078;PMS5003;62437;51.544;-3.276;2022-10-03T13:29:52;4;4;
74078;PMS5003;62437;51.544;-3.276;2022-10-03T13:32:19;5;4;
74078;PMS5003;62437;51.544;-3.276;2022-10-03T13:34:46;5;4;
74078;PMS5003;62437;51.544;-3.276;2022-10-03T13:37:11;7;6;
74078;PMS5003;62437;51.544;-3.276;2022-10-03T13:39:37;4;4;
74078;PMS5003;62437;51.544;-3.276;2022-10-03T13:42:04;5;4;
74078;PMS5003;62437;51.544;-3.276;2022-10-03T13:44:31;4;4;
74078;PMS5003;62437;51.544;-3.276;2022-10-03T13:46:52;6;6;
74078;PMS5003;62437;51.544;-3.276;2022-10-03T13:49:17;5;5;
74078;PMS5003;62437;51.544;-3.276;2022-10-03T13:51:44;3;3;
74078;PMS5003;62437;51.544;-3.276;2022-10-03T13:54:08;6;6;
74078;PMS5003;62437;51.544;-3.276;2022-10-03T13:56:37;5;5;
74078;PMS5003;62437;51.544;-3.276;2022-10-03T13:58:59;5;5;
74078;PMS5003;62437;51.544;-3.276;2022-10-03T14:01:29;5;4;
74078;PMS5003;62437;51.544;-3.276;2022-10-03T14:03:53;5;5;
74078;PMS5003;62437;51.544;-3.276;2022-10-03T14:06:17;5;4;
74078;PMS5003;62437;51.544;-3.276;2022-10-03T14:08:47;3;3;
74078;PMS5003;62437;51.544;-3.276;2022-10-03T14:11:10;7;6;
74078;PMS5003;62437;51.544;-3.276;2022-10-03T14:13:36;8;8;
74078;PMS5003;62437;51.544;-3.276;2022-10-03T14:16:00;6;5;
74078;PMS5003;62437;51.544;-3.276;2022-10-03T14:18:29;4;4;
74078;PMS5003;62437;51.544;-3.276;2022-10-03T14:23:17;5;5;
74078;PMS5003;62437;51.544;-3.276;2022-10-03T14:25:41;3;3;
74078;PMS5003;62437;51.544;-3.276;2022-10-03T14:28:08;6;5;
74078;PMS5003;62437;51.544;-3.276;2022-10-03T14:30:34;6;6;
74078;PMS5003;62437;51.544;-3.276;2022-10-03T14:33:00;5;5;
74078;PMS5003;62437;51.544;-3.276;2022-10-03T14:35:27;4;4;
74078;PMS5003;62437;51.544;-3.276;2022-10-03T14:37:50;8;7;
74078;PMS5003;62437;51.544;-3.276;2022-10-03T14:40:15;3;3;
74078;PMS5003;62437;51.544;-3.276;2022-10-03T14:42:45;4;4;
74078;PMS5003;62437;51.544;-3.276;2022-10-03T14:45:06;5;5;
74078;PMS5003;62437;51.544;-3.276;2022-10-03T14:47:32;3;3;
74078;PMS5003;62437;51.544;-3.276;2022-10-03T14:49:57;5;5;
74078;PMS5003;62437;51.544;-3.276;2022-10-03T14:52:25;5;4;
74078;PMS5003;62437;51.544;-3.276;2022-10-03T14:54:48;5;4;
74078;PMS5003;62437;51.544;-3.276;2022-10-03T14:57:20;3;3;
74078;PMS5003;62437;51.544;-3.276;2022-10-03T14:59:39;5;4;
74078;PMS5003;62437;51.544;-3.276;2022-10-03T15:04:31;5;5;
74078;PMS5003;62437;51.544;-3.276;2022-10-03T15:06:56;5;5;
74078;PMS5003;62437;51.544;-3.276;2022-10-03T15:09:23;4;3;
74078;PMS5003;62437;51.544;-3.276;2022-10-03T15:11:48;4;4;
74078;PMS5003;62437;51.544;-3.276;2022-10-03T15:14:13;4;4;
74078;PMS5003;62437;51.544;-3.276;2022-10-03T15:16:39;3;3;
74078;PMS5003;62437;51.544;-3.276;2022-10-03T15:19:05;4;4;
74078;PMS5003;62437;51.544;-3.276;2022-10-03T15:21:29;4;4;
74078;PMS5003;62437;51.544;-3.276;2022-10-03T15:23:56;5;5;
74078;PMS5003;62437;51.544;-3.276;2022-10-03T15:26:21;4;3;
74078;PMS5003;62437;51.544;-3.276;2022-10-03T15:28:47;3;3;
74078;PMS5003;62437;51.544;-3.276;2022-10-03T15:31:13;3;3;
74078;PMS5003;62437;51.544;-3.276;2022-10-03T15:33:37;1;1;
74078;PMS5003;62437;51.544;-3.276;2022-10-03T15:36:09;3;3;
74078;PMS5003;62437;51.544;-3.276;2022-10-03T15:38:31;3;3;
74078;PMS5003;62437;51.544;-3.276;2022-10-03T15:41:04;4;4;
74078;PMS5003;62437;51.544;-3.276;2022-10-03T15:43:26;3;2;
74078;PMS5003;62437;51.544;-3.276;2022-10-03T15:45:45;3;3;
74078;PMS5003;62437;51.544;-3.276;2022-10-03T15:48:11;2;2;
74078;PMS5003;62437;51.544;-3.276;2022-10-03T15:50:37;3;3;
74078;PMS5003;62437;51.544;-3.276;2022-10-03T15:53:04;4;4;
74078;PMS5003;62437;51.544;-3.276;2022-10-03T15:55:29;3;3;
74078;PMS5003;62437;51.544;-3.276;2022-10-03T15:57:57;3;3;
74078;PMS5003;62437;51.544;-3.276;2022-10-03T16:00:20;1;1;
74078;PMS5003;62437;51.544;-3.276;2022-10-03T16:02:44;3;3;
74078;PMS5003;62437;51.544;-3.276;2022-10-03T16:05:13;3;3;
74078;PMS5003;62437;51.544;-3.276;2022-10-03T16:07:38;2;2;
74078;PMS5003;62437;51.544;-3.276;2022-10-03T16:10:06;3;2;
74078;PMS5003;62437;51.544;-3.276;2022-10-03T16:12:32;1;1;
74078;PMS5003;62437;51.544;-3.276;2022-10-03T16:14:54;2;2;
74078;PMS5003;62437;51.544;-3.276;2022-10-03T16:17:19;7;6;
74078;PMS5003;62437;51.544;-3.276;2022-10-03T16:19:46;3;3;
74078;PMS5003;62437;51.544;-3.276;2022-10-03T16:22:12;5;3;
74078;PMS5003;62437;51.544;-3.276;2022-10-03T16:24:40;3;3;
74078;PMS5003;62437;51.544;-3.276;2022-10-03T16:27:04;2;2;
74078;PMS5003;62437;51.544;-3.276;2022-10-03T16:29:27;2;2;
74078;PMS5003;62437;51.544;-3.276;2022-10-03T16:31:53;3;2;
74078;PMS5003;62437;51.544;-3.276;2022-10-03T16:34:18;3;3;
74078;PMS5003;62437;51.544;-3.276;2022-10-03T16:36:44;3;3;
74078;PMS5003;62437;51.544;-3.276;2022-10-03T16:39:14;2;2;
74078;PMS5003;62437;51.544;-3.276;2022-10-03T16:41:38;2;2;
74078;PMS5003;62437;51.544;-3.276;2022-10-03T16:44:01;3;3;
74078;PMS5003;62437;51.544;-3.276;2022-10-03T16:46:27;3;1;
74078;PMS5003;62437;51.544;-3.276;2022-10-03T16:48:52;3;3;
74078;PMS5003;62437;51.544;-3.276;2022-10-03T16:51:18;1;1;
74078;PMS5003;62437;51.544;-3.276;2022-10-03T16:53:43;2;2;
74078;PMS5003;62437;51.544;-3.276;2022-10-03T16:56:10;3;3;
74078;PMS5003;62437;51.544;-3.276;2022-10-03T16:58:34;3;3;
74078;PMS5003;62437;51.544;-3.276;2022-10-03T17:01:00;3;3;
74078;PMS5003;62437;51.544;-3.276;2022-10-03T17:03:25;6;6;
74078;PMS5003;62437;51.544;-3.276;2022-10-03T17:05:52;2;2;
74078;PMS5003;62437;51.544;-3.276;2022-10-03T17:08:17;2;2;
74078;PMS5003;62437;51.544;-3.276;2022-10-03T17:10:42;1;1;
74078;PMS5003;62437;51.544;-3.276;2022-10-03T17:13:11;6;6;
74078;PMS5003;62437;51.544;-3.276;2022-10-03T17:15:33;3;3;
74078;PMS5003;62437;51.544;-3.276;2022-10-03T17:18:01;2;2;
74078;PMS5003;62437;51.544;-3.276;2022-10-03T17:20:28;1;1;
74078;PMS5003;62437;51.544;-3.276;2022-10-03T17:22:51;2;2;
74078;PMS5003;62437;51.544;-3.276;2022-10-03T17:27:41;2;2;
74078;PMS5003;62437;51.544;-3.276;2022-10-03T17:30:12;2;2;
74078;PMS5003;62437;51.544;-3.276;2022-10-03T17:32:34;2;2;
74078;PMS5003;62437;51.544;-3.276;2022-10-03T17:34:59;1;0;
74078;PMS5003;62437;51.544;-3.276;2022-10-03T17:37:28;2;2;
74078;PMS5003;62437;51.544;-3.276;2022-10-03T17:39:52;3;3;
74078;PMS5003;62437;51.544;-3.276;2022-10-03T17:42:17;3;2;
74078;PMS5003;62437;51.544;-3.276;2022-10-03T17:44:42;3;3;
74078;PMS5003;62437;51.544;-3.276;2022-10-03T17:47:09;3;3;
74078;PMS5003;62437;51.544;-3.276;2022-10-03T17:49:38;2;2;
74078;PMS5003;62437;51.544;-3.276;2022-10-03T17:51:57;3;3;
74078;PMS5003;62437;51.544;-3.276;2022-10-03T17:54:24;4;4;
74078;PMS5003;62437;51.544;-3.276;2022-10-03T17:56:49;3;3;
74078;PMS5003;62437;51.544;-3.276;2022-10-03T17:59:17;1;1;
74078;PMS5003;62437;51.544;-3.276;2022-10-03T18:01:40;3;3;
74078;PMS5003;62437;51.544;-3.276;2022-10-03T18:04:05;4;4;
74078;PMS5003;62437;51.544;-3.276;2022-10-03T18:06:37;3;3;
74078;PMS5003;62437;51.544;-3.276;2022-10-03T18:08:57;2;2;
74078;PMS5003;62437;51.544;-3.276;2022-10-03T18:11:22;5;5;
74078;PMS5003;62437;51.544;-3.276;2022-10-03T18:13:48;2;1;
74078;PMS5003;62437;51.544;-3.276;2022-10-03T18:16:17;1;1;
74078;PMS5003;62437;51.544;-3.276;2022-10-03T18:18:47;3;3;
74078;PMS5003;62437;51.544;-3.276;2022-10-03T18:21:04;3;3;
74078;PMS5003;62437;51.544;-3.276;2022-10-03T18:23:31;2;2;
74078;PMS5003;62437;51.544;-3.276;2022-10-03T18:25:57;2;2;
74078;PMS5003;62437;51.544;-3.276;2022-10-03T18:28:20;2;2;
74078;PMS5003;62437;51.544;-3.276;2022-10-03T18:30:48;1;1;
74078;PMS5003;62437;51.544;-3.276;2022-10-03T18:33:12;3;3;
74078;PMS5003;62437;51.544;-3.276;2022-10-03T18:35:37;2;2;
74078;PMS5003;62437;51.544;-3.276;2022-10-03T18:38:05;4;3;
74078;PMS5003;62437;51.544;-3.276;2022-10-03T18:40:29;3;3;
74078;PMS5003;62437;51.544;-3.276;2022-10-03T18:42:54;4;3;
74078;PMS5003;62437;51.544;-3.276;2022-10-03T18:45:20;2;2;
74078;PMS5003;62437;51.544;-3.276;2022-10-03T18:47:49;6;4;
74078;PMS5003;62437;51.544;-3.276;2022-10-03T18:50:13;2;2;
74078;PMS5003;62437;51.544;-3.276;2022-10-03T18:52:39;3;3;
74078;PMS5003;62437;51.544;-3.276;2022-10-03T18:55:03;5;4;
74078;PMS5003;62437;51.544;-3.276;2022-10-03T18:57:29;3;3;
74078;PMS5003;62437;51.544;-3.276;2022-10-03T18:59:54;4;4;
74078;PMS5003;62437;51.544;-3.276;2022-10-03T19:02:21;3;3;
74078;PMS5003;62437;51.544;-3.276;2022-10-03T19:04:47;4;4;
74078;PMS5003;62437;51.544;-3.276;2022-10-03T19:07:14;3;3;
74078;PMS5003;62437;51.544;-3.276;2022-10-03T19:09:38;5;5;
74078;PMS5003;62437;51.544;-3.276;2022-10-03T19:12:04;2;1;
74078;PMS5003;62437;51.544;-3.276;2022-10-03T19:14:29;5;3;
74078;PMS5003;62437;51.544;-3.276;2022-10-03T19:16:58;5;5;
74078;PMS5003;62437;51.544;-3.276;2022-10-03T19:19:21;1;1;
74078;PMS5003;62437;51.544;-3.276;2022-10-03T19:21:45;3;3;
74078;PMS5003;62437;51.544;-3.276;2022-10-03T19:24:12;3;3;
74078;PMS5003;62437;51.544;-3.276;2022-10-03T19:26:36;3;3;
74078;PMS5003;62437;51.544;-3.276;2022-10-03T19:29:02;3;3;
74078;PMS5003;62437;51.544;-3.276;2022-10-03T19:31:28;3;3;
74078;PMS5003;62437;51.544;-3.276;2022-10-03T19:33:55;3;3;
74078;PMS5003;62437;51.544;-3.276;2022-10-03T19:36:19;5;3;
74078;PMS5003;62437;51.544;-3.276;2022-10-03T19:38:45;3;2;
74078;PMS5003;62437;51.544;-3.276;2022-10-03T19:41:12;3;3;
74078;PMS5003;62437;51.544;-3.276;2022-10-03T19:43:37;2;2;
74078;PMS5003;62437;51.544;-3.276;2022-10-03T19:46:07;2;2;
74078;PMS5003;62437;51.544;-3.276;2022-10-03T19:48:26;3;2;
74078;PMS5003;62437;51.544;-3.276;2022-10-03T19:50:52;1;1;
74078;PMS5003;62437;51.544;-3.276;2022-10-03T19:53:18;4;4;
74078;PMS5003;62437;51.544;-3.276;2022-10-03T19:55:44;3;3;
74078;PMS5003;62437;51.544;-3.276;2022-10-03T19:58:10;1;1;
74078;PMS5003;62437;51.544;-3.276;2022-10-03T20:00:35;2;2;
74078;PMS5003;62437;51.544;-3.276;2022-10-03T20:03:05;2;2;
74078;PMS5003;62437;51.544;-3.276;2022-10-03T20:05:28;2;2;
74078;PMS5003;62437;51.544;-3.276;2022-10-03T20:07:53;4;4;
74078;PMS5003;62437;51.544;-3.276;2022-10-03T20:10:25;6;4;
74078;PMS5003;62437;51.544;-3.276;2022-10-03T20:12:43;2;2;